Time;durP1;ratioP1;P1;durP2;ratioP2;P2;SDS_P1;SDS_P2;PMS_P1;PMS_P2;Temp;Humidity;BMP_temperature;BMP_pressure;BME280_temperature;BME280_humidity;BME280_pressure;Samples;Min_cycle;Max_cycle;Signal;HPM_P1;HPM_P2
2024/01/13 00:01:07;;;;;;;8.10;3.22;;;3.10;99.90;;;;;;5051127;28;20049;-71
2024/01/13 00:03:35;;;;;;;9.60;3.42;;;3.00;99.90;;;;;;5052156;28;20098;-71
2024/01/13 00:06:02;;;;;;;10.02;3.25;;;3.10;99.90;;;;;;5051344;28;20110;-71
2024/01/13 00:08:30;;;;;;;13.93;3.38;;;3.10;99.90;;;;;;5052642;28;20492;-70
2024/01/13 00:10:57;;;;;;;10.52;3.30;;;3.30;99.90;;;;;;5051665;28;20041;-70
2024/01/13 00:13:24;;;;;;;8.38;3.72;;;3.10;99.90;;;;;;5052450;28;20114;-70
2024/01/13 00:15:51;;;;;;;8.45;3.67;;;3.00;99.90;;;;;;5052394;28;20048;-70
2024/01/13 00:18:19;;;;;;;8.00;3.70;;;3.00;99.90;;;;;;5052008;28;20049;-71
2024/01/13 00:20:46;;;;;;;10.02;3.53;;;3.10;99.90;;;;;;5052485;28;20048;-71
2024/01/13 00:23:13;;;;;;;9.48;3.72;;;3.10;99.90;;;;;;5052306;28;20607;-71
2024/01/13 00:25:41;;;;;;;7.15;3.47;;;3.10;99.90;;;;;;5051654;28;20053;-70
2024/01/13 00:28:08;;;;;;;6.95;3.63;;;3.10;99.90;;;;;;5052314;28;20118;-70
2024/01/13 00:30:35;;;;;;;7.82;3.35;;;3.10;99.90;;;;;;5052047;28;20103;-71
2024/01/13 00:33:02;;;;;;;8.85;3.53;;;3.10;99.90;;;;;;5051795;28;20488;-71
2024/01/13 00:35:28;;;;;;;8.23;3.20;;;3.10;99.90;;;;;;5050116;28;20037;-72
2024/01/13 00:37:56;;;;;;;7.10;2.90;;;3.10;99.90;;;;;;5051231;28;20105;-72
2024/01/13 00:40:22;;;;;;;15.20;4.03;;;3.10;99.90;;;;;;5052156;28;20045;-71
2024/01/13 00:42:51;;;;;;;9.55;3.40;;;3.10;99.90;;;;;;5051947;28;20052;-71
2024/01/13 00:45:18;;;;;;;6.22;2.67;;;3.40;99.90;;;;;;5052038;28;20091;-71
2024/01/13 00:47:44;;;;;;;7.05;2.97;;;3.00;99.90;;;;;;5051828;28;20270;-72
2024/01/13 00:50:11;;;;;;;5.80;2.60;;;3.20;99.90;;;;;;5037996;28;20052;-71
2024/01/13 00:52:38;;;;;;;7.75;3.08;;;2.90;99.90;;;;;;5052041;28;20044;-71
2024/01/13 00:55:06;;;;;;;5.88;2.47;;;2.90;99.90;;;;;;5054303;28;20052;-71
2024/01/13 00:57:33;;;;;;;5.45;2.75;;;2.90;99.90;;;;;;5052648;28;20056;-72
2024/01/13 01:00:01;;;;;;;9.00;2.95;;;3.10;99.90;;;;;;5052953;28;20488;-71
2024/01/13 01:02:28;;;;;;;4.90;2.42;;;2.90;99.90;;;;;;5052084;28;20069;-71
2024/01/13 01:04:55;;;;;;;9.25;3.42;;;2.80;99.90;;;;;;5052831;28;20504;-71
2024/01/13 01:07:22;;;;;;;5.60;2.95;;;2.70;99.90;;;;;;5051199;28;20075;-70
2024/01/13 01:09:48;;;;;;;6.45;3.08;;;2.70;99.90;;;;;;5053018;28;20060;-70
2024/01/13 01:12:15;;;;;;;8.25;2.88;;;2.70;99.90;;;;;;5051535;28;20060;-71
2024/01/13 01:14:42;;;;;;;9.48;3.67;;;2.70;99.90;;;;;;5052321;28;20044;-70
2024/01/13 01:17:11;;;;;;;9.20;3.08;;;2.70;99.90;;;;;;5051822;28;20056;-70
2024/01/13 01:19:38;;;;;;;7.03;3.05;;;2.80;99.90;;;;;;5054838;28;20049;-71
2024/01/13 01:22:05;;;;;;;6.80;3.67;;;2.80;99.90;;;;;;5051638;28;20049;-71
2024/01/13 01:24:32;;;;;;;8.30;2.72;;;2.80;99.90;;;;;;5051828;28;20131;-71
2024/01/13 01:26:59;;;;;;;7.68;3.17;;;2.80;99.90;;;;;;5053611;28;20110;-70
2024/01/13 01:29:26;;;;;;;4.30;2.28;;;2.80;99.90;;;;;;5052116;28;20052;-70
2024/01/13 01:31:53;;;;;;;6.82;2.55;;;2.90;99.90;;;;;;5037413;28;20048;-70
2024/01/13 01:34:21;;;;;;;10.65;2.83;;;3.00;99.90;;;;;;5051909;28;20095;-70
2024/01/13 01:36:48;;;;;;;5.07;3.28;;;2.90;99.90;;;;;;5047288;28;20052;-70
2024/01/13 01:39:15;;;;;;;3.78;2.28;;;3.10;99.90;;;;;;5054073;28;20173;-71
2024/01/13 01:41:41;;;;;;;8.07;2.50;;;2.90;99.90;;;;;;5051446;28;20040;-71
2024/01/13 01:44:08;;;;;;;8.05;3.55;;;2.90;99.90;;;;;;5051668;28;20051;-70
2024/01/13 01:46:37;;;;;;;8.43;3.20;;;3.00;99.90;;;;;;5052736;28;20055;-71
2024/01/13 01:49:04;;;;;;;7.88;3.20;;;3.20;99.90;;;;;;5050940;28;20492;-72
2024/01/13 01:51:33;;;;;;;7.82;2.97;;;2.90;99.90;;;;;;5052464;28;20090;-70
2024/01/13 01:54:00;;;;;;;8.65;3.13;;;3.10;99.90;;;;;;5050689;28;20045;-70
2024/01/13 01:56:29;;;;;;;4.57;2.80;;;3.20;99.90;;;;;;5051058;28;20557;-70
2024/01/13 01:58:57;;;;;;;6.55;3.00;;;2.90;99.90;;;;;;5049597;28;20052;-71
2024/01/13 02:01:24;;;;;;;9.32;3.08;;;3.00;99.90;;;;;;5051860;28;20040;-70
2024/01/13 02:03:52;;;;;;;5.57;3.10;;;2.90;99.90;;;;;;5048067;28;20493;-70
2024/01/13 02:06:20;;;;;;;7.05;3.50;;;2.90;99.90;;;;;;5051542;28;20048;-70
2024/01/13 02:08:48;;;;;;;13.15;3.40;;;3.00;99.90;;;;;;5050937;28;20110;-70
2024/01/13 02:11:15;;;;;;;6.50;3.30;;;3.00;99.90;;;;;;5050988;28;20468;-71
2024/01/13 02:13:43;;;;;;;7.95;3.20;;;3.00;99.90;;;;;;5035983;28;20049;-71
2024/01/13 02:16:11;;;;;;;6.35;3.00;;;3.00;99.90;;;;;;5053687;28;20059;-71
2024/01/13 02:18:39;;;;;;;9.73;3.40;;;3.00;99.90;;;;;;5051462;28;20059;-70
2024/01/13 02:21:06;;;;;;;6.32;3.30;;;3.00;99.90;;;;;;5050613;28;20049;-70
2024/01/13 02:23:34;;;;;;;8.40;4.00;;;3.00;99.90;;;;;;5051731;28;20062;-72
2024/01/13 02:26:01;;;;;;;6.13;3.70;;;3.00;99.90;;;;;;5050944;28;20404;-71
2024/01/13 02:28:28;;;;;;;9.65;4.10;;;3.00;99.90;;;;;;5051961;28;20052;-70
2024/01/13 02:30:56;;;;;;;7.95;4.40;;;3.00;99.90;;;;;;5049985;28;20037;-70
2024/01/13 02:33:23;;;;;;;6.47;2.97;;;3.00;99.90;;;;;;5051679;28;20447;-71
2024/01/13 02:35:50;;;;;;;12.68;4.70;;;3.00;99.90;;;;;;5054800;28;20094;-71
2024/01/13 02:38:16;;;;;;;6.03;2.78;;;2.90;99.90;;;;;;5051021;28;20103;-70
2024/01/13 02:40:45;;;;;;;4.82;3.13;;;3.10;99.90;;;;;;5051275;28;20045;-71
2024/01/13 02:43:12;;;;;;;6.72;3.22;;;3.20;99.90;;;;;;5051271;28;20102;-71
2024/01/13 02:45:38;;;;;;;8.95;3.13;;;3.00;99.90;;;;;;5054136;28;20045;-71
2024/01/13 02:48:11;;;;;;;7.05;3.30;;;3.00;99.90;;;;;;5051224;28;20056;-72
2024/01/13 02:50:38;;;;;;;7.97;2.85;;;3.10;99.90;;;;;;5051370;28;20106;-70
2024/01/13 02:53:05;;;;;;;7.82;2.83;;;3.10;99.90;;;;;;5034774;28;20045;-70
2024/01/13 02:55:34;;;;;;;6.28;2.42;;;3.10;99.90;;;;;;5051292;28;20044;-71
2024/01/13 02:58:02;;;;;;;5.47;2.70;;;3.10;99.90;;;;;;5050202;28;20131;-70
2024/01/13 03:00:29;;;;;;;10.40;3.08;;;3.00;99.90;;;;;;5049811;28;20115;-71
2024/01/13 03:02:56;;;;;;;8.90;3.22;;;3.00;99.90;;;;;;5051862;28;20052;-70
2024/01/13 03:05:22;;;;;;;5.32;2.50;;;3.10;99.90;;;;;;5050161;28;20048;-70
2024/01/13 03:07:49;;;;;;;9.45;2.90;;;3.10;99.90;;;;;;5052147;28;20049;-69
2024/01/13 03:10:16;;;;;;;6.65;2.53;;;3.10;99.90;;;;;;5054372;28;20048;-70
2024/01/13 03:12:44;;;;;;;7.25;2.58;;;3.00;99.90;;;;;;5054934;28;20067;-69
2024/01/13 03:15:12;;;;;;;11.05;3.30;;;3.00;99.90;;;;;;5054330;28;20076;-70
2024/01/13 03:17:39;;;;;;;6.70;2.78;;;3.10;99.90;;;;;;5055258;28;20500;-71
2024/01/13 03:20:07;;;;;;;7.25;3.20;;;3.10;99.90;;;;;;5052957;28;20048;-69
2024/01/13 03:22:34;;;;;;;9.55;3.40;;;3.00;99.90;;;;;;5054982;28;20044;-69
2024/01/13 03:25:01;;;;;;;10.23;3.17;;;3.20;99.90;;;;;;5052424;28;20113;-69
2024/01/13 03:27:28;;;;;;;6.25;2.75;;;3.00;99.90;;;;;;5053793;28;20052;-69
2024/01/13 03:29:55;;;;;;;10.07;2.83;;;3.00;99.90;;;;;;5055493;28;20454;-69
2024/01/13 03:32:23;;;;;;;9.32;3.17;;;3.00;99.90;;;;;;5053995;28;20462;-70
2024/01/13 03:34:50;;;;;;;6.95;2.63;;;3.00;99.90;;;;;;5054469;28;20129;-70
2024/01/13 03:37:16;;;;;;;5.40;2.85;;;3.10;99.90;;;;;;5053594;28;20402;-70
2024/01/13 03:39:43;;;;;;;5.28;3.08;;;3.00;99.90;;;;;;5054723;28;20394;-70
2024/01/13 03:42:10;;;;;;;9.50;2.72;;;3.00;99.90;;;;;;5054349;28;20501;-69
2024/01/13 03:44:37;;;;;;;4.57;1.95;;;3.00;99.90;;;;;;5054861;28;20098;-69
2024/01/13 03:47:04;;;;;;;8.75;2.38;;;3.10;99.90;;;;;;5053763;28;20056;-70
2024/01/13 03:49:32;;;;;;;4.50;2.00;;;3.00;99.90;;;;;;5054588;28;20144;-70
2024/01/13 03:51:59;;;;;;;7.00;2.47;;;3.00;99.90;;;;;;5053395;28;20130;-69
2024/01/13 03:54:26;;;;;;;4.80;2.38;;;3.00;99.90;;;;;;5054644;28;20492;-71
2024/01/13 03:56:53;;;;;;;4.97;2.50;;;3.00;99.90;;;;;;5052940;28;20068;-71
2024/01/13 03:59:20;;;;;;;4.85;2.30;;;3.10;99.90;;;;;;5054567;28;20052;-71
2024/01/13 04:01:47;;;;;;;5.72;2.28;;;3.00;99.90;;;;;;5052838;28;20068;-71
2024/01/13 04:04:14;;;;;;;4.88;2.30;;;3.00;99.90;;;;;;5054586;28;20423;-71
2024/01/13 04:06:42;;;;;;;4.35;2.05;;;3.00;99.90;;;;;;5054523;28;20107;-71
2024/01/13 04:09:09;;;;;;;5.65;2.60;;;3.00;99.90;;;;;;5053284;28;20439;-70
2024/01/13 04:11:36;;;;;;;7.75;2.50;;;3.00;99.90;;;;;;5056156;28;20450;-71
2024/01/13 04:14:03;;;;;;;5.35;2.80;;;3.00;99.90;;;;;;5054034;28;20086;-72
2024/01/13 04:16:30;;;;;;;3.83;2.63;;;3.00;99.90;;;;;;5052227;28;20049;-71
2024/01/13 04:18:57;;;;;;;7.82;2.60;;;3.30;99.90;;;;;;5053583;28;20098;-71
2024/01/13 04:21:24;;;;;;;7.65;3.13;;;3.10;99.90;;;;;;5053063;28;20048;-71
2024/01/13 04:23:53;;;;;;;4.97;3.20;;;3.00;99.90;;;;;;5053310;28;20044;-69
2024/01/13 04:26:21;;;;;;;3.63;2.38;;;3.10;99.90;;;;;;5054348;28;20044;-71
2024/01/13 04:28:48;;;;;;;7.45;2.72;;;3.00;99.90;;;;;;5053220;28;20094;-71
2024/01/13 04:31:15;;;;;;;4.18;2.60;;;3.10;99.90;;;;;;5053877;28;20044;-71
2024/01/13 04:33:42;;;;;;;6.85;3.20;;;3.10;99.90;;;;;;5053143;28;20075;-70
2024/01/13 04:36:09;;;;;;;7.85;2.80;;;3.10;99.90;;;;;;5053911;28;20098;-71
2024/01/13 04:38:36;;;;;;;6.30;2.53;;;3.10;99.90;;;;;;5052533;28;20040;-71
2024/01/13 04:41:04;;;;;;;8.23;2.78;;;3.10;99.90;;;;;;5053759;28;20561;-71
2024/01/13 04:43:31;;;;;;;5.63;2.65;;;3.10;99.90;;;;;;5055351;28;20453;-71
2024/01/13 04:45:58;;;;;;;5.50;3.30;;;3.10;99.90;;;;;;5052931;28;20052;-70
2024/01/13 04:48:25;;;;;;;8.15;3.10;;;3.10;99.90;;;;;;5052177;28;20052;-71
2024/01/13 04:50:52;;;;;;;11.98;2.85;;;3.00;99.90;;;;;;5052852;28;20062;-71
2024/01/13 04:53:19;;;;;;;7.97;2.90;;;3.10;99.90;;;;;;5068608;28;20048;-71
2024/01/13 04:55:45;;;;;;;6.55;2.63;;;3.10;99.90;;;;;;5052780;28;20086;-71
2024/01/13 04:58:14;;;;;;;9.20;3.85;;;3.10;99.90;;;;;;5053382;28;20454;-71
2024/01/13 05:00:42;;;;;;;9.70;3.30;;;3.10;99.90;;;;;;5052413;28;20114;-71
2024/01/13 05:03:09;;;;;;;6.05;3.35;;;3.20;99.90;;;;;;5053481;28;20041;-71
2024/01/13 05:05:36;;;;;;;8.32;2.80;;;3.10;99.90;;;;;;5051516;28;20041;-71
2024/01/13 05:08:03;;;;;;;5.10;3.03;;;3.20;99.90;;;;;;5053363;28;20048;-71
2024/01/13 05:10:30;;;;;;;4.47;2.92;;;3.20;99.90;;;;;;5068467;28;20106;-71
2024/01/13 05:12:57;;;;;;;7.40;3.22;;;3.20;99.90;;;;;;5052450;28;20052;-73
2024/01/13 05:15:25;;;;;;;5.30;2.65;;;3.20;99.90;;;;;;5051909;28;20057;-71
2024/01/13 05:17:52;;;;;;;8.32;3.63;;;3.20;99.90;;;;;;5053065;28;20490;-71
2024/01/13 05:20:19;;;;;;;6.82;3.25;;;3.10;99.90;;;;;;5051055;28;20435;-71
2024/01/13 05:22:46;;;;;;;8.23;3.33;;;3.10;99.90;;;;;;5054785;28;20390;-71
2024/01/13 05:25:13;;;;;;;6.95;3.28;;;3.20;99.90;;;;;;5051220;28;20489;-71
2024/01/13 05:27:39;;;;;;;5.68;2.40;;;3.20;99.90;;;;;;5052312;28;20056;-71
2024/01/13 05:30:09;;;;;;;7.85;2.92;;;3.20;99.90;;;;;;5051230;28;20087;-71
2024/01/13 05:32:39;;;;;;;12.25;3.15;;;3.20;99.90;;;;;;5052391;28;20048;-71
2024/01/13 05:35:07;;;;;;;4.57;2.60;;;3.20;99.90;;;;;;5051023;28;20080;-71
2024/01/13 05:37:34;;;;;;;8.40;3.60;;;3.20;99.90;;;;;;5051885;28;20067;-70
2024/01/13 05:40:01;;;;;;;6.95;3.08;;;3.10;99.90;;;;;;5052811;28;20113;-70
2024/01/13 05:42:28;;;;;;;5.50;2.25;;;3.10;99.90;;;;;;5050978;28;20067;-71
2024/01/13 05:44:55;;;;;;;3.97;2.28;;;3.10;99.90;;;;;;5052813;28;20098;-72
2024/01/13 05:47:22;;;;;;;5.40;2.45;;;3.10;99.90;;;;;;5050928;28;20045;-72
2024/01/13 05:49:51;;;;;;;5.93;2.90;;;3.10;99.90;;;;;;5052128;28;20064;-71
2024/01/13 05:52:18;;;;;;;4.53;2.33;;;3.10;99.90;;;;;;5052805;28;20400;-71
2024/01/13 05:54:45;;;;;;;4.45;2.08;;;3.20;99.90;;;;;;5051779;28;20056;-72
2024/01/13 05:57:12;;;;;;;3.13;2.28;;;3.00;99.90;;;;;;5050796;28;20562;-72
2024/01/13 05:59:39;;;;;;;4.45;2.88;;;3.10;99.90;;;;;;5052447;28;20136;-70
2024/01/13 06:02:06;;;;;;;6.43;2.25;;;3.10;99.90;;;;;;5050614;28;20045;-71
2024/01/13 06:04:33;;;;;;;5.13;2.53;;;3.10;99.90;;;;;;5052259;28;20502;-71
2024/01/13 06:07:04;;;;;;;5.65;2.53;;;3.10;99.90;;;;;;5050851;28;20049;-72
2024/01/13 06:09:31;;;;;;;7.28;2.40;;;3.10;99.90;;;;;;5050978;28;20060;-71
2024/01/13 06:11:58;;;;;;;6.43;2.15;;;3.10;99.90;;;;;;5050634;28;20076;-72
2024/01/13 06:14:25;;;;;;;4.70;2.15;;;3.10;99.90;;;;;;5051539;28;20450;-71
2024/01/13 06:16:52;;;;;;;4.07;1.50;;;3.40;99.90;;;;;;5051971;28;20389;-70
2024/01/13 06:19:19;;;;;;;4.95;2.03;;;3.10;99.90;;;;;;5051222;28;20140;-70
2024/01/13 06:21:46;;;;;;;5.15;1.70;;;3.40;99.90;;;;;;5052368;28;20097;-69
2024/01/13 06:24:15;;;;;;;4.18;1.50;;;3.10;99.90;;;;;;5052509;28;20051;-70
2024/01/13 06:26:42;;;;;;;4.30;1.40;;;3.20;99.90;;;;;;5052271;28;20094;-71
2024/01/13 06:29:09;;;;;;;3.60;1.52;;;3.10;99.90;;;;;;5051714;28;20064;-69
2024/01/13 06:31:36;;;;;;;4.22;1.52;;;3.20;99.90;;;;;;5051977;28;20052;-70
2024/01/13 06:34:04;;;;;;;3.65;1.63;;;3.20;99.90;;;;;;5050426;28;20098;-71
2024/01/13 06:36:30;;;;;;;2.97;1.48;;;3.50;99.90;;;;;;5051509;28;20048;-70
2024/01/13 06:38:57;;;;;;;2.60;1.42;;;3.10;99.90;;;;;;5050431;28;20139;-69
2024/01/13 06:41:25;;;;;;;3.28;1.50;;;3.30;99.90;;;;;;5051387;28;20102;-70
2024/01/13 06:43:52;;;;;;;4.88;1.85;;;3.20;99.90;;;;;;5055783;28;20058;-69
2024/01/13 06:46:20;;;;;;;4.25;1.33;;;3.20;99.90;;;;;;5055255;28;20052;-71
2024/01/13 06:48:47;;;;;;;6.00;1.60;;;3.20;99.90;;;;;;5056120;28;20106;-71
2024/01/13 06:51:14;;;;;;;2.40;1.00;;;3.20;99.90;;;;;;5054498;28;20059;-69
2024/01/13 06:53:41;;;;;;;2.88;1.13;;;3.30;99.90;;;;;;5056181;28;20048;-70
2024/01/13 06:56:09;;;;;;;4.30;1.27;;;3.10;99.90;;;;;;5055464;28;20052;-71
2024/01/13 06:58:37;;;;;;;3.17;1.40;;;3.10;99.90;;;;;;5053579;28;20106;-70
2024/01/13 07:01:04;;;;;;;1.83;1.00;;;3.10;99.90;;;;;;5055413;28;20408;-70
2024/01/13 07:03:32;;;;;;;2.00;1.10;;;3.20;99.90;;;;;;5054330;28;20073;-70
2024/01/13 07:05:59;;;;;;;4.93;1.20;;;3.20;99.90;;;;;;5054395;28;20052;-70
2024/01/13 07:08:26;;;;;;;2.47;1.42;;;3.20;99.90;;;;;;5054305;28;20048;-69
2024/01/13 07:10:54;;;;;;;2.35;1.42;;;3.20;99.90;;;;;;5054951;28;20098;-70
2024/01/13 07:13:20;;;;;;;3.20;1.40;;;3.20;99.90;;;;;;5057956;28;20562;-72
2024/01/13 07:15:48;;;;;;;2.83;1.48;;;3.20;99.90;;;;;;5055204;28;20086;-70
2024/01/13 07:18:15;;;;;;;7.00;1.75;;;3.20;99.90;;;;;;5054389;28;20049;-70
2024/01/13 07:20:42;;;;;;;3.85;1.70;;;3.20;99.90;;;;;;5054952;28;20052;-69
2024/01/13 07:23:09;;;;;;;4.13;1.67;;;3.30;99.90;;;;;;5055060;28;20102;-69
2024/01/13 07:25:36;;;;;;;8.10;2.10;;;3.30;99.90;;;;;;5053264;28;20064;-69
2024/01/13 07:28:03;;;;;;;3.88;1.52;;;3.30;99.90;;;;;;5059917;28;20095;-70
2024/01/13 07:30:30;;;;;;;5.38;1.85;;;3.20;99.90;;;;;;5058657;28;20056;-69
2024/01/13 07:32:58;;;;;;;6.15;2.25;;;3.30;99.90;;;;;;5046170;28;20095;-69
2024/01/13 07:35:25;;;;;;;5.07;2.28;;;3.30;99.90;;;;;;5071237;28;20048;-69
2024/01/13 07:37:52;;;;;;;6.75;2.45;;;3.30;99.90;;;;;;5054078;28;20048;-70
2024/01/13 07:40:19;;;;;;;5.72;3.35;;;3.30;99.90;;;;;;5071089;28;20048;-70
2024/01/13 07:42:45;;;;;;;5.82;2.88;;;3.30;99.90;;;;;;5055789;28;20446;-70
2024/01/13 07:45:12;;;;;;;9.32;3.72;;;3.20;99.90;;;;;;5051262;28;20115;-70
2024/01/13 07:47:39;;;;;;;9.95;4.85;;;3.30;99.90;;;;;;5043486;28;20496;-70
2024/01/13 07:50:08;;;;;;;10.95;5.50;;;3.30;99.90;;;;;;5053549;28;20493;-70
2024/01/13 07:52:35;;;;;;;12.70;5.65;;;3.30;99.90;;;;;;5053742;28;20051;-71
2024/01/13 07:55:02;;;;;;;11.85;6.38;;;3.30;99.90;;;;;;5051550;28;20074;-70
2024/01/13 07:57:29;;;;;;;13.55;7.13;;;3.30;99.90;;;;;;5055079;28;20052;-70
2024/01/13 07:59:56;;;;;;;17.77;7.90;;;3.30;99.90;;;;;;5052878;28;20048;-70
2024/01/13 08:02:23;;;;;;;20.02;9.35;;;3.30;99.90;;;;;;5054671;28;20048;-70
2024/01/13 08:04:50;;;;;;;15.40;9.30;;;3.30;99.90;;;;;;5055423;28;20060;-70
2024/01/13 08:07:20;;;;;;;22.52;10.65;;;3.40;99.90;;;;;;5053182;28;20052;-70
2024/01/13 08:09:47;;;;;;;20.50;10.00;;;3.60;99.90;;;;;;5052271;28;20123;-71
2024/01/13 08:12:14;;;;;;;19.98;9.35;;;3.30;99.90;;;;;;5055254;28;20060;-71
2024/01/13 08:14:41;;;;;;;19.27;9.85;;;3.40;99.90;;;;;;5050560;28;20488;-69
2024/01/13 08:17:08;;;;;;;20.90;9.32;;;3.60;99.90;;;;;;5053471;28;20041;-70
2024/01/13 08:19:36;;;;;;;20.60;9.70;;;3.40;99.90;;;;;;5051744;28;20052;-70
2024/01/13 08:22:04;;;;;;;19.13;11.05;;;3.30;99.90;;;;;;5054432;28;20056;-70
2024/01/13 08:24:32;;;;;;;20.35;11.70;;;3.30;99.90;;;;;;5053373;28;20041;-70
2024/01/13 08:26:59;;;;;;;23.70;12.38;;;3.30;99.90;;;;;;5053822;28;20049;-71
2024/01/13 08:29:26;;;;;;;25.13;14.07;;;3.40;99.90;;;;;;5055302;28;20057;-71
2024/01/13 08:31:53;;;;;;;30.35;14.07;;;3.30;99.90;;;;;;5054072;28;20105;-70
2024/01/13 08:34:20;;;;;;;26.88;15.32;;;3.50;99.90;;;;;;5052145;28;20041;-70
2024/01/13 08:36:46;;;;;;;27.63;16.48;;;3.40;99.90;;;;;;5063082;28;20049;-69
2024/01/13 08:39:13;;;;;;;30.55;16.30;;;3.40;99.90;;;;;;5065773;28;20048;-71
2024/01/13 08:41:41;;;;;;;39.45;17.70;;;3.40;99.90;;;;;;5053944;28;20063;-70
2024/01/13 08:44:08;;;;;;;38.03;20.48;;;3.40;99.90;;;;;;5050753;28;20107;-70
2024/01/13 08:46:35;;;;;;;34.38;20.05;;;3.40;99.90;;;;;;5062610;28;20105;-71
2024/01/13 08:49:04;;;;;;;36.80;19.92;;;3.40;99.90;;;;;;5051301;28;20079;-69
2024/01/13 08:51:31;;;;;;;39.33;21.20;;;3.50;99.90;;;;;;5052523;28;20098;-69
2024/01/13 08:53:58;;;;;;;39.83;20.67;;;3.50;99.90;;;;;;5059995;28;20063;-69
2024/01/13 08:56:24;;;;;;;33.65;19.80;;;3.50;99.90;;;;;;5049940;28;20093;-70
2024/01/13 08:58:53;;;;;;;35.40;19.45;;;3.50;99.90;;;;;;5046941;28;20491;-70
2024/01/13 09:01:20;;;;;;;38.00;19.38;;;3.50;99.90;;;;;;5053460;28;20403;-70
2024/01/13 09:03:47;;;;;;;38.95;19.63;;;3.50;99.90;;;;;;5053725;28;20053;-70
2024/01/13 09:06:14;;;;;;;35.83;19.15;;;3.60;99.90;;;;;;5041614;28;20075;-70
2024/01/13 09:08:41;;;;;;;36.03;20.85;;;3.50;99.90;;;;;;5050807;28;20052;-70
2024/01/13 09:11:09;;;;;;;46.58;22.05;;;3.50;99.90;;;;;;5053760;28;20048;-70
2024/01/13 09:13:36;;;;;;;39.47;21.67;;;3.60;99.90;;;;;;5049634;28;21639;-70
2024/01/13 09:16:05;;;;;;;38.85;21.23;;;3.50;99.90;;;;;;5052288;28;20136;-71
2024/01/13 09:18:32;;;;;;;43.42;22.88;;;3.60;99.90;;;;;;5044704;28;20051;-71
2024/01/13 09:20:59;;;;;;;42.15;22.50;;;3.50;99.90;;;;;;5051375;28;20052;-71
2024/01/13 09:23:25;;;;;;;41.42;23.48;;;3.50;99.90;;;;;;5051287;28;20044;-71
2024/01/13 09:25:52;;;;;;;40.83;22.58;;;3.50;99.90;;;;;;5048832;28;20393;-70
2024/01/13 09:28:19;;;;;;;42.45;25.30;;;3.60;99.90;;;;;;5050528;28;20542;-71
2024/01/13 09:30:46;;;;;;;48.25;25.42;;;3.50;99.90;;;;;;5051429;28;20546;-71
2024/01/13 09:33:15;;;;;;;52.25;26.13;;;3.60;99.90;;;;;;5051710;28;20045;-71
2024/01/13 09:35:42;;;;;;;48.55;26.42;;;3.60;99.90;;;;;;5053276;28;20044;-69
2024/01/13 09:38:08;;;;;;;50.92;27.88;;;3.60;99.90;;;;;;5053269;28;20053;-70
2024/01/13 09:40:39;;;;;;;46.15;27.05;;;3.60;99.90;;;;;;5040336;28;20055;-70
2024/01/13 09:43:16;;;;;;;54.05;28.77;;;3.60;99.90;;;;;;5058380;28;20521;-70
2024/01/13 09:45:48;;;;;;;51.78;25.13;;;3.60;99.90;;;;;;5052940;28;20492;-70
2024/01/13 09:48:18;;;;;;;49.55;25.92;;;3.60;99.90;;;;;;5048199;28;20053;-70
2024/01/13 09:50:48;;;;;;;47.43;27.23;;;3.60;99.90;;;;;;5052355;28;20566;-70
2024/01/13 09:53:26;;;;;;;42.30;25.52;;;3.60;99.90;;;;;;5051818;28;20101;-71
2024/01/13 09:55:58;;;;;;;40.80;23.27;;;3.60;99.90;;;;;;5052485;28;20109;-70
2024/01/13 09:58:26;;;;;;;43.45;26.30;;;3.70;99.90;;;;;;5051815;28;20090;-71
2024/01/13 10:00:54;;;;;;;47.28;25.00;;;3.70;99.90;;;;;;5050755;28;20052;-71
2024/01/13 10:03:23;;;;;;;44.60;25.42;;;3.70;99.90;;;;;;5050490;28;20052;-71
2024/01/13 10:05:52;;;;;;;55.33;27.00;;;3.60;99.90;;;;;;5050377;28;20055;-70
2024/01/13 10:08:23;;;;;;;47.75;26.33;;;3.70;99.90;;;;;;5051510;28;20503;-71
2024/01/13 10:10:50;;;;;;;43.20;25.27;;;3.70;99.90;;;;;;5051254;28;20098;-71
2024/01/13 10:13:17;;;;;;;46.70;26.67;;;3.70;99.90;;;;;;5048475;28;20102;-71
2024/01/13 10:15:43;;;;;;;54.25;28.15;;;3.70;99.90;;;;;;5049166;28;20056;-71
2024/01/13 10:18:11;;;;;;;46.40;25.27;;;3.70;99.90;;;;;;5054824;28;20044;-71
2024/01/13 10:20:40;;;;;;;41.33;25.08;;;3.80;99.90;;;;;;5056477;28;20052;-71
2024/01/13 10:23:07;;;;;;;44.85;23.60;;;3.80;99.90;;;;;;5056788;28;20385;-71
2024/01/13 10:25:34;;;;;;;43.47;22.58;;;4.00;99.90;;;;;;5055823;28;20052;-71
2024/01/13 10:28:03;;;;;;;44.67;22.60;;;4.10;99.90;;;;;;5060623;28;20041;-71
2024/01/13 10:30:30;;;;;;;41.42;22.63;;;4.10;99.90;;;;;;5056893;28;20048;-71
2024/01/13 10:32:59;;;;;;;39.60;21.67;;;4.10;99.90;;;;;;5058881;28;20052;-71
2024/01/13 10:35:27;;;;;;;42.00;21.33;;;4.20;99.90;;;;;;5057064;28;20562;-70
2024/01/13 10:37:57;;;;;;;42.72;21.23;;;4.20;99.90;;;;;;5057658;28;20055;-71
2024/01/13 10:40:24;;;;;;;36.35;19.63;;;4.20;99.90;;;;;;5058565;28;20412;-71
2024/01/13 10:42:55;;;;;;;36.58;18.05;;;4.20;99.90;;;;;;5056707;28;20056;-71
2024/01/13 10:45:23;;;;;;;30.75;16.65;;;4.20;99.90;;;;;;5057197;28;20435;-71
2024/01/13 10:47:52;;;;;;;27.20;16.73;;;4.20;99.90;;;;;;5058679;28;20488;-70
2024/01/13 10:50:19;;;;;;;29.05;14.32;;;4.20;99.90;;;;;;5055965;28;20142;-70
2024/01/13 10:52:58;;;;;;;29.05;15.82;;;4.20;99.90;;;;;;5058309;28;20078;-70
2024/01/13 10:55:26;;;;;;;35.95;14.55;;;4.20;99.90;;;;;;5057067;28;20060;-70
2024/01/13 10:57:54;;;;;;;28.00;13.60;;;4.30;99.90;;;;;;5058003;28;20475;-69
2024/01/13 11:00:22;;;;;;;23.85;13.23;;;4.30;99.90;;;;;;5057002;28;20103;-71
2024/01/13 11:02:50;;;;;;;24.75;12.27;;;4.40;99.90;;;;;;5055441;28;20087;-70
2024/01/13 11:05:18;;;;;;;23.63;12.27;;;4.60;99.90;;;;;;5056137;28;20040;-70
2024/01/13 11:07:45;;;;;;;22.23;12.63;;;4.70;99.90;;;;;;5058148;28;20055;-70
2024/01/13 11:10:18;;;;;;;19.17;11.23;;;4.90;99.90;;;;;;5058850;28;20048;-71
2024/01/13 11:12:52;;;;;;;19.48;11.43;;;4.80;99.90;;;;;;5057625;28;20105;-71
2024/01/13 11:15:36;;;;;;;22.45;11.32;;;4.80;99.90;;;;;;5058622;28;20044;-71
2024/01/13 11:18:05;;;;;;;22.98;10.65;;;4.80;99.90;;;;;;5058505;28;20048;-69
2024/01/13 11:20:59;;;;;;;21.60;11.63;;;4.90;99.90;;;;;;5057496;28;20041;-70
2024/01/13 11:23:26;;;;;;;26.63;11.70;;;4.90;99.90;;;;;;5058299;28;20446;-70
2024/01/13 11:25:54;;;;;;;17.63;10.30;;;4.90;99.90;;;;;;5048429;28;20432;-69
2024/01/13 11:28:22;;;;;;;20.13;10.95;;;4.90;99.90;;;;;;5055106;28;20170;-70
2024/01/13 11:30:49;;;;;;;19.08;10.02;;;4.80;99.90;;;;;;5054901;28;20071;-69
2024/01/13 11:33:16;;;;;;;24.25;11.30;;;4.90;99.90;;;;;;5052870;28;20076;-72
2024/01/13 11:35:45;;;;;;;17.17;9.13;;;4.70;99.90;;;;;;5052890;28;20063;-70
2024/01/13 11:38:14;;;;;;;16.20;9.70;;;4.70;99.90;;;;;;5051251;28;20052;-70
2024/01/13 11:40:46;;;;;;;21.05;8.73;;;4.70;99.90;;;;;;5055201;28;20135;-70
2024/01/13 11:43:23;;;;;;;20.02;8.77;;;4.70;99.90;;;;;;5054683;28;20416;-70
2024/01/13 11:45:51;;;;;;;17.13;9.27;;;4.70;99.90;;;;;;5066037;28;20132;-71
2024/01/13 11:48:41;;;;;;;16.27;8.68;;;4.80;99.90;;;;;;5053354;28;20405;-72
2024/01/13 11:51:10;;;;;;;17.05;8.18;;;4.70;99.90;;;;;;5051431;28;20083;-70
2024/01/13 11:53:40;;;;;;;17.10;8.38;;;4.70;99.90;;;;;;5052596;28;20037;-70
2024/01/13 11:56:08;;;;;;;13.60;7.85;;;4.70;99.90;;;;;;5055954;28;20049;-70
2024/01/13 11:58:38;;;;;;;19.38;8.32;;;4.70;99.90;;;;;;5055913;28;20086;-69
2024/01/13 12:01:06;;;;;;;14.68;7.35;;;4.70;99.90;;;;;;5052267;28;20045;-70
2024/01/13 12:03:33;;;;;;;11.90;6.60;;;4.70;99.90;;;;;;5053559;28;20048;-71
2024/01/13 12:06:00;;;;;;;14.05;6.25;;;4.80;99.90;;;;;;5052410;28;20143;-71
2024/01/13 12:08:27;;;;;;;14.25;6.43;;;4.80;99.90;;;;;;5052957;28;20106;-71
2024/01/13 12:10:54;;;;;;;11.20;6.20;;;4.80;99.90;;;;;;5052158;28;20099;-72
2024/01/13 12:13:22;;;;;;;12.15;6.72;;;4.80;99.90;;;;;;5055574;28;20441;-71
2024/01/13 12:15:50;;;;;;;12.02;6.38;;;4.80;99.90;;;;;;5043598;28;20637;-72
2024/01/13 12:18:20;;;;;;;12.98;6.07;;;4.80;99.90;;;;;;5050718;28;20048;-70
2024/01/13 12:20:49;;;;;;;12.52;4.82;;;4.90;99.90;;;;;;5051930;28;20427;-71
2024/01/13 12:23:17;;;;;;;12.02;5.68;;;4.90;99.90;;;;;;5049011;28;20110;-71
2024/01/13 12:25:44;;;;;;;9.00;5.85;;;4.80;99.90;;;;;;5052183;28;20048;-71
2024/01/13 12:28:11;;;;;;;10.10;5.65;;;4.80;99.90;;;;;;5053523;28;20106;-70
2024/01/13 12:30:39;;;;;;;10.30;5.20;;;4.80;99.90;;;;;;5051875;28;20475;-70
2024/01/13 12:33:08;;;;;;;9.48;5.55;;;4.80;99.90;;;;;;5054251;28;20103;-71
2024/01/13 12:35:35;;;;;;;9.05;4.93;;;5.00;99.90;;;;;;5051119;28;20040;-71
2024/01/13 12:38:04;;;;;;;11.52;6.03;;;4.80;99.90;;;;;;5052394;28;20044;-71
2024/01/13 12:40:32;;;;;;;8.70;4.80;;;4.70;99.90;;;;;;5049747;28;20139;-72
2024/01/13 12:42:59;;;;;;;7.60;4.60;;;4.70;99.90;;;;;;5051706;28;20061;-71
2024/01/13 12:45:27;;;;;;;9.30;4.75;;;4.80;99.90;;;;;;5051225;28;20601;-72
2024/01/13 12:47:54;;;;;;;10.20;4.47;;;4.70;99.90;;;;;;5045655;28;20128;-72
2024/01/13 12:50:22;;;;;;;9.10;4.53;;;4.80;99.90;;;;;;5050668;28;20056;-71
2024/01/13 12:52:49;;;;;;;9.10;3.72;;;4.80;99.90;;;;;;5046152;28;20295;-72